sensor_id;sensor_type;location;lat;lon;timestamp;pressure;altitude;pressure_sealevel;temperature;humidity
17649;BME280;8943;51.110;-4.158;2024-02-21T00:00:49;101401.47;;;14.93;62.78
17649;BME280;8943;51.110;-4.158;2024-02-21T00:03:18;101394.41;;;14.92;62.60
17649;BME280;8943;51.110;-4.158;2024-02-21T00:05:48;101374.91;;;14.90;62.76
17649;BME280;8943;51.110;-4.158;2024-02-21T00:08:16;101360.75;;;14.88;62.82
17649;BME280;8943;51.110;-4.158;2024-02-21T00:10:49;101369.53;;;14.90;62.59
17649;BME280;8943;51.110;-4.158;2024-02-21T00:13:18;101356.13;;;14.90;62.78
17649;BME280;8943;51.110;-4.158;2024-02-21T00:15:46;101350.00;;;14.88;62.72
17649;BME280;8943;51.110;-4.158;2024-02-21T00:18:16;101356.25;;;14.88;63.23
17649;BME280;8943;51.110;-4.158;2024-02-21T00:20:44;101334.78;;;14.88;63.01
17649;BME280;8943;51.110;-4.158;2024-02-21T00:23:22;101344.66;;;14.88;62.90
17649;BME280;8943;51.110;-4.158;2024-02-21T00:25:51;101333.06;;;14.87;62.79
17649;BME280;8943;51.110;-4.158;2024-02-21T00:28:22;101325.63;;;14.91;62.96
17649;BME280;8943;51.110;-4.158;2024-02-21T00:30:56;101322.69;;;14.94;62.64
17649;BME280;8943;51.110;-4.158;2024-02-21T00:33:27;101318.41;;;14.91;62.86
17649;BME280;8943;51.110;-4.158;2024-02-21T00:35:57;101309.06;;;14.86;63.24
17649;BME280;8943;51.110;-4.158;2024-02-21T00:38:25;101297.22;;;14.88;63.05
17649;BME280;8943;51.110;-4.158;2024-02-21T00:40:54;101287.22;;;14.90;62.89
17649;BME280;8943;51.110;-4.158;2024-02-21T00:43:22;101284.38;;;14.92;62.94
17649;BME280;8943;51.110;-4.158;2024-02-21T00:45:53;101279.16;;;14.90;62.97
17649;BME280;8943;51.110;-4.158;2024-02-21T00:48:22;101261.47;;;14.88;62.95
17649;BME280;8943;51.110;-4.158;2024-02-21T00:50:52;101255.72;;;14.92;63.08
17649;BME280;8943;51.110;-4.158;2024-02-21T00:53:21;101259.72;;;14.98;62.87
17649;BME280;8943;51.110;-4.158;2024-02-21T00:55:53;101265.09;;;14.98;62.81
17649;BME280;8943;51.110;-4.158;2024-02-21T00:58:24;101255.47;;;14.96;62.72
17649;BME280;8943;51.110;-4.158;2024-02-21T01:00:56;101247.56;;;14.94;62.88
17649;BME280;8943;51.110;-4.158;2024-02-21T01:03:26;101243.91;;;14.95;62.80
17649;BME280;8943;51.110;-4.158;2024-02-21T01:06:00;101223.53;;;14.92;62.79
17649;BME280;8943;51.110;-4.158;2024-02-21T01:08:29;101221.81;;;14.91;62.86
17649;BME280;8943;51.110;-4.158;2024-02-21T01:11:00;101218.28;;;14.91;62.70
17649;BME280;8943;51.110;-4.158;2024-02-21T01:13:30;101219.53;;;14.87;62.72
17649;BME280;8943;51.110;-4.158;2024-02-21T01:16:09;101216.00;;;14.86;62.72
17649;BME280;8943;51.110;-4.158;2024-02-21T01:18:41;101202.81;;;14.83;63.00
17649;BME280;8943;51.110;-4.158;2024-02-21T01:24:30;101195.19;;;14.79;62.89
17649;BME280;8943;51.110;-4.158;2024-02-21T01:27:02;101188.09;;;14.78;62.97
17649;BME280;8943;51.110;-4.158;2024-02-21T01:29:48;101183.97;;;14.74;62.82
17649;BME280;8943;51.110;-4.158;2024-02-21T01:32:21;101172.53;;;14.72;62.80
17649;BME280;8943;51.110;-4.158;2024-02-21T01:34:51;101165.47;;;14.71;62.95
17649;BME280;8943;51.110;-4.158;2024-02-21T01:37:20;101165.47;;;14.71;62.92
17649;BME280;8943;51.110;-4.158;2024-02-21T01:39:54;101144.25;;;14.67;62.99
17649;BME280;8943;51.110;-4.158;2024-02-21T01:42:24;101146.22;;;14.65;62.99
17649;BME280;8943;51.110;-4.158;2024-02-21T01:44:53;101141.72;;;14.66;62.97
17649;BME280;8943;51.110;-4.158;2024-02-21T01:47:21;101131.81;;;14.66;63.02
17649;BME280;8943;51.110;-4.158;2024-02-21T01:49:58;101138.03;;;14.67;63.17
17649;BME280;8943;51.110;-4.158;2024-02-21T01:52:27;101127.69;;;14.62;63.04
17649;BME280;8943;51.110;-4.158;2024-02-21T01:55:08;101117.72;;;14.64;63.11
17649;BME280;8943;51.110;-4.158;2024-02-21T01:57:48;101114.03;;;14.65;62.95
17649;BME280;8943;51.110;-4.158;2024-02-21T02:00:17;101113.31;;;14.63;63.20
17649;BME280;8943;51.110;-4.158;2024-02-21T02:03:14;101114.16;;;14.64;62.86
17649;BME280;8943;51.110;-4.158;2024-02-21T02:05:59;101108.22;;;14.60;63.26
17649;BME280;8943;51.110;-4.158;2024-02-21T02:08:33;101101.88;;;14.61;62.85
17649;BME280;8943;51.110;-4.158;2024-02-21T02:11:15;101087.59;;;14.61;63.31
17649;BME280;8943;51.110;-4.158;2024-02-21T02:13:44;101069.69;;;14.61;63.26
17649;BME280;8943;51.110;-4.158;2024-02-21T02:16:41;101059.94;;;14.60;63.11
17649;BME280;8943;51.110;-4.158;2024-02-21T02:19:09;101068.25;;;14.57;62.98
17649;BME280;8943;51.110;-4.158;2024-02-21T02:21:49;101056.28;;;14.61;63.28
17649;BME280;8943;51.110;-4.158;2024-02-21T02:24:24;101043.25;;;14.57;63.01
17649;BME280;8943;51.110;-4.158;2024-02-21T02:26:54;101036.66;;;14.61;63.01
17649;BME280;8943;51.110;-4.158;2024-02-21T02:29:27;101039.72;;;14.56;62.95
17649;BME280;8943;51.110;-4.158;2024-02-21T02:32:51;101026.31;;;14.56;62.93
17649;BME280;8943;51.110;-4.158;2024-02-21T02:36:12;101000.75;;;14.52;62.89
17649;BME280;8943;51.110;-4.158;2024-02-21T02:38:53;100992.84;;;14.51;62.58
17649;BME280;8943;51.110;-4.158;2024-02-21T02:45:45;100973.53;;;14.36;62.48
17649;BME280;8943;51.110;-4.158;2024-02-21T02:48:15;100977.19;;;14.35;62.67
17649;BME280;8943;51.110;-4.158;2024-02-21T02:51:10;100964.19;;;14.30;62.49
17649;BME280;8943;51.110;-4.158;2024-02-21T03:05:23;100922.47;;;14.16;62.44
17649;BME280;8943;51.110;-4.158;2024-02-21T03:07:56;100912.00;;;14.13;62.42
17649;BME280;8943;51.110;-4.158;2024-02-21T03:10:26;100894.94;;;14.14;62.23
17649;BME280;8943;51.110;-4.158;2024-02-21T03:13:28;100878.41;;;14.09;62.10
17649;BME280;8943;51.110;-4.158;2024-02-21T03:16:27;100879.94;;;14.02;62.40
17649;BME280;8943;51.110;-4.158;2024-02-21T03:19:24;100858.50;;;14.02;62.23
17649;BME280;8943;51.110;-4.158;2024-02-21T03:22:01;100854.63;;;13.95;61.94
17649;BME280;8943;51.110;-4.158;2024-02-21T03:24:34;100843.81;;;13.97;62.34
17649;BME280;8943;51.110;-4.158;2024-02-21T03:27:04;100825.16;;;13.95;62.42
17649;BME280;8943;51.110;-4.158;2024-02-21T03:29:49;100827.13;;;13.93;62.61
17649;BME280;8943;51.110;-4.158;2024-02-21T03:32:17;100828.81;;;13.94;62.64
17649;BME280;8943;51.110;-4.158;2024-02-21T03:35:10;100800.50;;;13.91;62.55
17649;BME280;8943;51.110;-4.158;2024-02-21T03:37:52;100799.34;;;13.94;62.29
17649;BME280;8943;51.110;-4.158;2024-02-21T03:40:21;100779.50;;;13.97;62.70
17649;BME280;8943;51.110;-4.158;2024-02-21T03:42:50;100782.63;;;14.02;62.56
17649;BME280;8943;51.110;-4.158;2024-02-21T04:15:14;100673.44;;;13.84;62.56
17649;BME280;8943;51.110;-4.158;2024-02-21T04:33:33;100620.03;;;13.93;62.67
17649;BME280;8943;51.110;-4.158;2024-02-21T04:36:18;100606.50;;;13.94;62.81
17649;BME280;8943;51.110;-4.158;2024-02-21T04:39:17;100594.53;;;13.98;62.61
17649;BME280;8943;51.110;-4.158;2024-02-21T04:42:29;100575.09;;;13.96;62.78
17649;BME280;8943;51.110;-4.158;2024-02-21T04:45:14;100567.16;;;13.95;62.75
17649;BME280;8943;51.110;-4.158;2024-02-21T04:48:17;100560.38;;;13.90;63.08
17649;BME280;8943;51.110;-4.158;2024-02-21T04:51:21;100580.00;;;13.91;62.80
17649;BME280;8943;51.110;-4.158;2024-02-21T04:54:23;100573.22;;;13.87;62.75
17649;BME280;8943;51.110;-4.158;2024-02-21T04:57:34;100551.66;;;13.88;62.81
17649;BME280;8943;51.110;-4.158;2024-02-21T05:00:15;100552.78;;;13.86;62.66
17649;BME280;8943;51.110;-4.158;2024-02-21T05:02:54;100543.03;;;13.85;62.57
17649;BME280;8943;51.110;-4.158;2024-02-21T05:06:09;100547.56;;;13.84;62.68
17649;BME280;8943;51.110;-4.158;2024-02-21T05:39:14;100459.56;;;13.60;63.28
17649;BME280;8943;51.110;-4.158;2024-02-21T05:42:00;100440.84;;;13.60;62.80
17649;BME280;8943;51.110;-4.158;2024-02-21T05:44:41;100439.56;;;13.64;63.03
17649;BME280;8943;51.110;-4.158;2024-02-21T05:47:31;100424.94;;;13.69;62.99
17649;BME280;8943;51.110;-4.158;2024-02-21T05:50:28;100413.22;;;13.70;63.05
17649;BME280;8943;51.110;-4.158;2024-02-21T05:53:21;100405.19;;;13.70;63.14
17649;BME280;8943;51.110;-4.158;2024-02-21T05:56:38;100400.56;;;13.72;63.18
17649;BME280;8943;51.110;-4.158;2024-02-21T05:59:25;100386.75;;;13.76;63.11
17649;BME280;8943;51.110;-4.158;2024-02-21T06:02:11;100369.53;;;13.79;63.14
17649;BME280;8943;51.110;-4.158;2024-02-21T06:05:11;100369.53;;;13.79;63.42
17649;BME280;8943;51.110;-4.158;2024-02-21T06:08:29;100365.59;;;13.83;63.30
17649;BME280;8943;51.110;-4.158;2024-02-21T06:11:04;100342.75;;;13.88;63.29
17649;BME280;8943;51.110;-4.158;2024-02-21T06:14:08;100349.94;;;13.88;63.44
17649;BME280;8943;51.110;-4.158;2024-02-21T06:17:10;100327.53;;;13.89;63.42
17649;BME280;8943;51.110;-4.158;2024-02-21T06:19:55;100317.94;;;13.96;63.23
17649;BME280;8943;51.110;-4.158;2024-02-21T06:22:51;100324.25;;;13.95;63.30
17649;BME280;8943;51.110;-4.158;2024-02-21T06:25:56;100335.69;;;13.97;63.28
17649;BME280;8943;51.110;-4.158;2024-02-21T06:51:40;100243.63;;;13.98;63.53
17649;BME280;8943;51.110;-4.158;2024-02-21T06:54:43;100226.56;;;13.99;63.56
17649;BME280;8943;51.110;-4.158;2024-02-21T07:05:00;100208.53;;;14.01;64.08
17649;BME280;8943;51.110;-4.158;2024-02-21T07:08:10;100189.34;;;14.06;63.56
17649;BME280;8943;51.110;-4.158;2024-02-21T07:11:23;100178.75;;;14.04;63.66
17649;BME280;8943;51.110;-4.158;2024-02-21T07:16:58;100167.16;;;14.13;63.40
17649;BME280;8943;51.110;-4.158;2024-02-21T07:20:41;100148.41;;;14.13;63.48
17649;BME280;8943;51.110;-4.158;2024-02-21T08:23:40;99997.06;;;14.35;63.96
17649;BME280;8943;51.110;-4.158;2024-02-21T08:30:54;99948.50;;;14.38;64.22
17649;BME280;8943;51.110;-4.158;2024-02-21T08:33:43;99959.41;;;14.37;64.39
17649;BME280;8943;51.110;-4.158;2024-02-21T08:37:10;99952.34;;;14.36;64.15
17649;BME280;8943;51.110;-4.158;2024-02-21T08:54:15;99900.75;;;14.34;64.14
17649;BME280;8943;51.110;-4.158;2024-02-21T12:30:17;99678.19;;;16.77;64.42
17649;BME280;8943;51.110;-4.158;2024-02-21T12:32:52;99682.41;;;16.80;64.52
17649;BME280;8943;51.110;-4.158;2024-02-21T13:02:36;99730.94;;;16.47;64.72
17649;BME280;8943;51.110;-4.158;2024-02-21T13:05:23;99706.22;;;16.52;64.55
17649;BME280;8943;51.110;-4.158;2024-02-21T13:08:37;99747.75;;;16.49;64.57
17649;BME280;8943;51.110;-4.158;2024-02-21T13:27:07;99748.66;;;16.33;64.11
17649;BME280;8943;51.110;-4.158;2024-02-21T13:29:51;99731.19;;;16.29;64.36
17649;BME280;8943;51.110;-4.158;2024-02-21T13:57:19;99729.09;;;16.47;63.23
17649;BME280;8943;51.110;-4.158;2024-02-21T14:00:21;99727.56;;;16.53;63.13
17649;BME280;8943;51.110;-4.158;2024-02-21T15:08:55;99717.41;;;16.63;61.26
17649;BME280;8943;51.110;-4.158;2024-02-21T15:44:38;99720.00;;;16.48;60.25
17649;BME280;8943;51.110;-4.158;2024-02-21T15:47:07;99736.31;;;16.55;60.12
17649;BME280;8943;51.110;-4.158;2024-02-21T15:53:03;99731.25;;;16.52;59.60
17649;BME280;8943;51.110;-4.158;2024-02-21T15:55:33;99745.03;;;16.57;59.58
17649;BME280;8943;51.110;-4.158;2024-02-21T16:18:56;99719.84;;;16.11;60.79
17649;BME280;8943;51.110;-4.158;2024-02-21T17:02:44;99707.00;;;15.82;61.40
17649;BME280;8943;51.110;-4.158;2024-02-21T18:42:10;99672.75;;;15.76;61.46
17649;BME280;8943;51.110;-4.158;2024-02-21T18:48:31;99668.56;;;15.81;60.64
